createdAt,value
2019-01-24T00:02:22.522Z,-1.50
2019-01-24T00:05:04.168Z,-1.50
2019-01-24T00:07:45.359Z,-1.50
2019-01-24T00:10:26.221Z,-1.50
2019-01-24T00:13:06.750Z,-1.60
2019-01-24T00:15:47.532Z,-1.60
2019-01-24T00:18:29.339Z,-1.60
2019-01-24T00:21:10.324Z,-1.60
2019-01-24T00:23:51.445Z,-1.60
2019-01-24T00:26:32.700Z,-1.60
2019-01-24T00:29:14.141Z,-1.60
2019-01-24T00:31:55.821Z,-1.50
2019-01-24T00:34:36.472Z,-1.50
2019-01-24T00:37:16.984Z,-1.50
2019-01-24T00:39:57.764Z,-1.50
2019-01-24T00:45:22.293Z,-1.60
2019-01-24T00:48:06.703Z,-1.60
2019-01-24T00:50:35.987Z,-1.60
2019-01-24T00:53:24.360Z,-1.60
2019-01-24T00:56:05.369Z,-1.60
2019-01-24T00:58:46.772Z,-1.60
2019-01-24T01:01:27.241Z,-1.60
2019-01-24T01:04:08.438Z,-1.60
2019-01-24T01:06:49.594Z,-1.60
2019-01-24T01:09:30.944Z,-1.50
2019-01-24T01:12:10.710Z,-1.50
2019-01-24T01:14:51.614Z,-1.50
2019-01-24T01:17:32.180Z,-1.50
2019-01-24T01:20:13.059Z,-1.60
2019-01-24T01:22:53.857Z,-1.60
2019-01-24T01:25:34.265Z,-1.70
2019-01-24T01:28:15.227Z,-1.70
2019-01-24T01:30:55.992Z,-1.80
2019-01-24T01:33:37.305Z,-1.80
2019-01-24T01:36:18.086Z,-1.80
2019-01-24T01:38:59.273Z,-1.80
2019-01-24T01:41:39.980Z,-1.80
2019-01-24T01:44:21.406Z,-1.80
2019-01-24T01:47:02.580Z,-1.90
2019-01-24T01:49:43.481Z,-1.80
2019-01-24T01:52:12.541Z,-1.90
2019-01-24T01:55:01.163Z,-1.90
2019-01-24T01:57:49.434Z,-1.90
2019-01-24T02:00:31.125Z,-2.00
2019-01-24T02:03:12.033Z,-1.90
2019-01-24T02:05:52.997Z,-1.90
2019-01-24T02:08:34.416Z,-1.90
2019-01-24T02:11:14.897Z,-1.90
2019-01-24T02:13:56.179Z,-1.90
2019-01-24T02:16:37.647Z,-1.90
2019-01-24T02:19:18.385Z,-1.90
2019-01-24T02:21:59.757Z,-1.90
2019-01-24T02:27:22.672Z,-2.00
2019-01-24T02:30:03.398Z,-2.10
2019-01-24T02:32:48.694Z,-2.10
2019-01-24T02:35:29.771Z,-2.10
2019-01-24T02:38:11.102Z,-2.10
2019-01-24T02:40:52.657Z,-2.20
2019-01-24T02:43:33.498Z,-2.20
2019-01-24T02:46:02.797Z,-2.20
2019-01-24T02:48:51.309Z,-2.20
2019-01-24T02:51:20.548Z,-2.20
2019-01-24T02:54:08.915Z,-2.20
2019-01-24T02:59:31.756Z,-2.20
2019-01-24T03:02:12.684Z,-2.20
2019-01-24T03:04:57.103Z,-2.10
2019-01-24T03:07:36.268Z,-2.10
2019-01-24T03:10:16.799Z,-2.20
2019-01-24T03:12:57.599Z,-2.20
2019-01-24T03:15:26.923Z,-2.20
2019-01-24T03:18:15.219Z,-2.30
2019-01-24T03:20:44.520Z,-2.30
2019-01-24T03:23:32.753Z,-2.30
2019-01-24T03:26:13.756Z,-2.30
2019-01-24T03:28:54.540Z,-2.40
2019-01-24T03:31:35.431Z,-2.40
2019-01-24T03:34:16.807Z,-2.40
2019-01-24T03:36:57.422Z,-2.40
2019-01-24T03:39:38.188Z,-2.40
2019-01-24T03:42:19.440Z,-2.40
2019-01-24T03:45:00.709Z,-2.40
2019-01-24T03:47:42.044Z,-2.40
2019-01-24T03:53:05.069Z,-2.40
2019-01-24T03:55:47.301Z,-2.40
2019-01-24T03:58:28.007Z,-2.40
2019-01-24T04:01:09.038Z,-2.40
2019-01-24T04:03:38.240Z,-2.40
2019-01-24T04:06:26.552Z,-2.50
2019-01-24T04:08:55.761Z,-2.50
2019-01-24T04:11:44.092Z,-2.50
2019-01-24T04:14:25.887Z,-2.50
2019-01-24T04:17:07.098Z,-2.50
2019-01-24T04:19:48.031Z,-2.50
2019-01-24T04:22:28.989Z,-2.40
2019-01-24T04:25:10.092Z,-2.40
2019-01-24T04:27:51.128Z,-2.40
2019-01-24T04:30:32.562Z,-2.40
2019-01-24T04:33:13.252Z,-2.40
2019-01-24T04:35:54.554Z,-2.40
2019-01-24T04:38:36.678Z,-2.30
2019-01-24T04:41:18.046Z,-2.40
2019-01-24T04:43:58.790Z,-2.30
2019-01-24T04:46:28.132Z,-2.30
2019-01-24T04:49:16.494Z,-2.30
2019-01-24T04:51:57.252Z,-2.30
2019-01-24T04:57:17.410Z,-2.30
2019-01-24T05:00:08.634Z,-2.30
2019-01-24T05:02:49.719Z,-2.30
2019-01-24T05:05:30.347Z,-2.40
2019-01-24T05:08:11.491Z,-2.40
2019-01-24T05:10:52.204Z,-2.30
2019-01-24T05:13:33.129Z,-2.30
2019-01-24T05:16:13.527Z,-2.30
2019-01-24T05:18:54.281Z,-2.30
2019-01-24T05:21:23.635Z,-2.30
2019-01-24T05:24:12.064Z,-2.30
2019-01-24T05:27:00.490Z,-2.30
2019-01-24T05:29:41.532Z,-2.20
2019-01-24T05:32:22.352Z,-2.30
2019-01-24T05:35:03.586Z,-2.30
2019-01-24T05:40:23.149Z,-2.30
2019-01-24T05:43:03.487Z,-2.30
2019-01-24T05:45:44.642Z,-2.20
2019-01-24T05:48:26.133Z,-2.30
2019-01-24T05:51:07.153Z,-2.30
2019-01-24T05:53:48.022Z,-2.30
2019-01-24T05:56:29.301Z,-2.20
2019-01-24T06:01:51.551Z,-2.20
2019-01-24T06:07:11.637Z,-2.20
2019-01-24T06:09:53.047Z,-2.20
2019-01-24T06:12:35.312Z,-2.20
2019-01-24T06:15:15.824Z,-2.20
2019-01-24T06:17:56.701Z,-2.30
2019-01-24T06:20:37.285Z,-2.30
2019-01-24T06:23:18.296Z,-2.30
2019-01-24T06:25:59.593Z,-2.30
2019-01-24T06:28:40.294Z,-2.30
2019-01-24T06:31:09.487Z,-2.30
2019-01-24T06:33:57.811Z,-2.20
2019-01-24T06:36:46.205Z,-2.20
2019-01-24T06:39:26.983Z,-2.20
2019-01-24T06:42:07.513Z,-2.20
2019-01-24T06:44:48.416Z,-2.20
2019-01-24T06:47:17.713Z,-2.20
2019-01-24T06:50:06.484Z,-2.20
2019-01-24T06:52:35.875Z,-2.10
2019-01-24T06:55:25.604Z,-2.10
2019-01-24T06:58:06.751Z,-2.10
2019-01-24T07:00:48.225Z,-2.10
2019-01-24T07:03:29.354Z,-2.10
2019-01-24T07:06:10.362Z,-2.10
2019-01-24T07:08:51.125Z,-2.10
2019-01-24T07:11:31.777Z,-2.10
2019-01-24T07:14:12.685Z,-2.10
2019-01-24T07:16:54.229Z,-2.10
2019-01-24T07:19:34.814Z,-2.10
2019-01-24T07:22:16.120Z,-2.10
2019-01-24T07:24:58.999Z,-2.20
2019-01-24T07:27:39.950Z,-2.10
2019-01-24T07:30:21.241Z,-2.10
2019-01-24T07:33:01.828Z,-2.10
2019-01-24T07:35:43.028Z,-2.10
2019-01-24T07:38:24.540Z,-2.00
2019-01-24T07:40:53.841Z,-2.00
2019-01-24T07:43:42.340Z,-1.90
2019-01-24T07:46:30.659Z,-1.90
2019-01-24T07:49:12.027Z,-1.80
2019-01-24T07:51:41.268Z,-1.80
2019-01-24T07:54:29.610Z,-1.70
2019-01-24T07:57:17.866Z,-1.70
2019-01-24T07:59:58.971Z,-1.70
2019-01-24T08:02:40.524Z,-1.70
2019-01-24T08:05:21.317Z,-1.60
2019-01-24T08:08:01.786Z,-1.60
2019-01-24T08:10:43.928Z,-1.60
2019-01-24T08:13:24.463Z,-1.50
2019-01-24T08:16:05.411Z,-1.50
2019-01-24T08:18:46.792Z,-1.50
2019-01-24T08:21:28.309Z,-1.40
2019-01-24T08:24:09.323Z,-1.30
2019-01-24T08:26:51.021Z,-1.30
2019-01-24T08:29:32.513Z,-1.30
2019-01-24T08:32:13.591Z,-1.20
2019-01-24T08:34:54.885Z,-1.20
2019-01-24T08:37:36.614Z,-1.10
2019-01-24T08:40:17.711Z,-1.10
2019-01-24T08:42:58.081Z,-1.00
2019-01-24T08:45:39.208Z,-0.90
2019-01-24T08:48:20.070Z,-0.80
2019-01-24T08:51:01.005Z,-0.80
2019-01-24T08:53:41.453Z,-0.70
2019-01-24T08:56:22.522Z,-0.70
2019-01-24T08:59:03.098Z,-0.60
2019-01-24T09:01:44.793Z,-0.50
2019-01-24T09:04:26.334Z,-0.40
2019-01-24T09:07:07.603Z,-0.30
2019-01-24T09:09:48.135Z,-0.30
2019-01-24T09:12:30.333Z,-0.20
2019-01-24T09:15:11.264Z,-0.10
2019-01-24T09:17:52.033Z,-0.10
2019-01-24T09:20:33.017Z,0.00
2019-01-24T09:23:13.913Z,-0.10
2019-01-24T09:25:43.161Z,-0.10
2019-01-24T09:28:31.568Z,-0.10
2019-01-24T09:31:16.414Z,-0.10
2019-01-24T09:33:57.619Z,0.00
2019-01-24T09:36:38.443Z,0.10
2019-01-24T09:39:19.611Z,0.10
2019-01-24T09:42:00.333Z,0.20
2019-01-24T09:47:20.277Z,0.40
2019-01-24T09:50:00.716Z,0.50
2019-01-24T09:52:41.381Z,0.50
2019-01-24T09:55:22.075Z,0.50
2019-01-24T09:58:03.664Z,0.50
2019-01-24T10:00:44.394Z,0.50
2019-01-24T10:03:25.871Z,0.50
2019-01-24T10:06:07.446Z,0.50
2019-01-24T10:08:36.658Z,0.60
2019-01-24T10:11:24.953Z,0.80
2019-01-24T10:14:06.188Z,0.80
2019-01-24T10:16:47.514Z,1.00
2019-01-24T10:19:28.376Z,1.10
2019-01-24T10:22:09.669Z,1.20
2019-01-24T10:24:50.319Z,1.30
2019-01-24T10:27:31.494Z,1.30
2019-01-24T10:30:12.419Z,1.30
2019-01-24T10:32:53.315Z,1.40
2019-01-24T10:35:34.050Z,1.50
2019-01-24T10:38:15.470Z,1.60
2019-01-24T10:40:57.861Z,1.70
2019-01-24T10:43:39.092Z,1.70
2019-01-24T10:46:20.063Z,1.80
2019-01-24T10:51:39.718Z,1.80
2019-01-24T10:54:20.170Z,1.80
2019-01-24T10:57:01.358Z,1.80
2019-01-24T10:59:30.612Z,1.80
2019-01-24T11:02:18.868Z,2.00
2019-01-24T11:05:07.876Z,2.00
2019-01-24T11:07:48.869Z,2.00
2019-01-24T11:10:30.083Z,2.10
2019-01-24T11:13:10.754Z,2.10
2019-01-24T11:15:51.743Z,2.20
2019-01-24T11:18:32.402Z,2.30
2019-01-24T11:21:12.963Z,2.30
2019-01-24T11:23:54.128Z,2.30
2019-01-24T11:26:34.783Z,2.20
2019-01-24T11:29:16.105Z,2.10
2019-01-24T11:31:45.408Z,2.10
2019-01-24T11:34:33.701Z,2.20
2019-01-24T11:37:22.185Z,2.20
2019-01-24T11:40:03.342Z,2.10
2019-01-24T11:42:43.790Z,2.10
2019-01-24T11:45:24.904Z,2.10
2019-01-24T11:48:05.541Z,2.20
2019-01-24T11:50:46.210Z,2.30
2019-01-24T11:53:27.075Z,2.50
2019-01-24T11:56:07.766Z,2.60
2019-01-24T11:58:50.829Z,2.50
2019-01-24T12:01:20.094Z,2.50
2019-01-24T12:04:08.284Z,2.50
2019-01-24T12:06:48.888Z,2.50
2019-01-24T12:09:29.484Z,2.60
2019-01-24T12:12:10.448Z,2.50
2019-01-24T12:14:51.751Z,2.50
2019-01-24T12:17:33.051Z,2.70
2019-01-24T12:20:14.447Z,2.70
2019-01-24T12:22:55.714Z,2.60
2019-01-24T12:25:37.279Z,2.70
2019-01-24T12:28:17.980Z,2.70
2019-01-24T12:30:58.762Z,2.70
2019-01-24T12:33:39.699Z,2.70
2019-01-24T12:36:20.197Z,2.50
2019-01-24T12:39:01.246Z,2.50
2019-01-24T12:41:44.720Z,2.50
2019-01-24T12:44:13.932Z,2.50
2019-01-24T12:47:02.362Z,2.60
2019-01-24T12:49:43.708Z,2.60
2019-01-24T12:52:24.100Z,2.70
2019-01-24T12:55:05.230Z,2.70
2019-01-24T12:57:46.187Z,2.90
2019-01-24T13:00:26.837Z,2.90
2019-01-24T13:03:08.029Z,2.90
2019-01-24T13:05:49.351Z,3.00
2019-01-24T13:08:30.501Z,3.10
2019-01-24T13:11:11.212Z,2.90
2019-01-24T13:13:40.352Z,3.00
2019-01-24T13:16:28.610Z,3.20
2019-01-24T13:19:16.852Z,3.30
2019-01-24T13:24:38.144Z,3.40
2019-01-24T13:27:19.628Z,3.60
2019-01-24T13:30:01.117Z,3.70
2019-01-24T13:32:42.522Z,3.70
2019-01-24T13:35:23.764Z,3.60
2019-01-24T13:38:06.773Z,3.40
2019-01-24T13:40:48.229Z,3.20
2019-01-24T13:43:29.312Z,2.90
2019-01-24T13:46:12.416Z,2.90
2019-01-24T13:48:41.733Z,2.90
2019-01-24T13:51:30.016Z,2.80
2019-01-24T13:54:10.755Z,2.70
2019-01-24T13:56:51.415Z,2.70
2019-01-24T13:59:32.106Z,2.80
2019-01-24T14:02:13.184Z,2.70
2019-01-24T14:04:53.624Z,2.50
2019-01-24T14:07:34.871Z,2.50
2019-01-24T14:10:15.496Z,2.50
2019-01-24T14:12:56.584Z,2.50
2019-01-24T14:15:37.559Z,2.60
2019-01-24T14:18:18.317Z,2.50
2019-01-24T14:20:59.259Z,2.50
2019-01-24T14:23:40.363Z,2.40
2019-01-24T14:26:21.374Z,2.30
2019-01-24T14:29:02.937Z,2.20
2019-01-24T14:31:44.410Z,2.10
2019-01-24T14:34:25.242Z,2.10
2019-01-24T14:37:06.934Z,2.00
2019-01-24T14:39:48.374Z,1.90
2019-01-24T14:42:29.119Z,1.90
2019-01-24T14:45:10.223Z,1.90
2019-01-24T14:47:51.086Z,1.90
2019-01-24T14:50:31.843Z,1.80
2019-01-24T14:53:12.810Z,1.80
2019-01-24T14:55:54.176Z,1.70
2019-01-24T14:58:23.400Z,1.60
2019-01-24T15:01:13.108Z,1.50
2019-01-24T15:03:53.882Z,1.40
2019-01-24T15:06:34.581Z,1.40
2019-01-24T15:09:15.505Z,1.40
2019-01-24T15:11:56.744Z,1.40
2019-01-24T15:14:37.486Z,1.40
2019-01-24T15:17:18.627Z,1.30
2019-01-24T15:19:59.285Z,1.10
2019-01-24T15:22:40.586Z,1.10
2019-01-24T15:25:21.710Z,1.00
2019-01-24T15:28:03.057Z,1.00
2019-01-24T15:30:43.713Z,0.90
2019-01-24T15:33:24.583Z,0.90
2019-01-24T15:36:05.771Z,0.80
2019-01-24T15:38:34.887Z,0.80
2019-01-24T15:41:23.169Z,0.80
2019-01-24T15:44:11.542Z,0.70
2019-01-24T15:46:52.799Z,0.70
2019-01-24T15:49:33.442Z,0.70
2019-01-24T15:52:14.392Z,0.70
2019-01-24T15:54:55.016Z,0.70
2019-01-24T15:57:36.442Z,0.60
2019-01-24T16:00:17.011Z,0.60
2019-01-24T16:02:58.325Z,0.60
2019-01-24T16:05:39.273Z,0.50
2019-01-24T16:08:20.457Z,0.50
2019-01-24T16:11:01.863Z,0.50
2019-01-24T16:13:42.289Z,0.50
2019-01-24T16:16:23.333Z,0.50
2019-01-24T16:19:04.245Z,0.50
2019-01-24T16:21:45.236Z,0.40
2019-01-24T16:24:26.150Z,0.40
2019-01-24T16:27:07.391Z,0.40
2019-01-24T16:29:36.658Z,0.40
2019-01-24T16:32:25.098Z,0.40
2019-01-24T16:35:06.324Z,0.40
2019-01-24T16:37:46.924Z,0.30
2019-01-24T16:40:27.613Z,0.30
2019-01-24T16:43:08.148Z,0.20
2019-01-24T16:45:49.282Z,0.20
2019-01-24T16:48:29.733Z,0.20
2019-01-24T16:51:10.977Z,0.20
2019-01-24T16:53:51.657Z,0.20
2019-01-24T16:56:32.830Z,0.20
2019-01-24T16:59:13.979Z,0.20
2019-01-24T17:01:54.561Z,0.20
2019-01-24T17:04:34.966Z,0.20
2019-01-24T17:07:16.033Z,0.20
2019-01-24T17:09:57.658Z,0.20
2019-01-24T17:12:38.159Z,0.20
2019-01-24T17:15:18.686Z,0.20
2019-01-24T17:17:59.296Z,0.20
2019-01-24T17:20:40.382Z,0.20
2019-01-24T17:23:20.821Z,0.20
2019-01-24T17:26:01.770Z,0.20
2019-01-24T17:28:42.465Z,0.10
2019-01-24T17:31:23.378Z,0.10
2019-01-24T17:34:03.727Z,0.10
2019-01-24T17:36:44.017Z,0.10
2019-01-24T17:42:16.169Z,0.00
2019-01-24T17:44:57.328Z,0.00
2019-01-24T17:47:38.805Z,0.00
2019-01-24T17:50:20.216Z,0.00
2019-01-24T17:53:01.636Z,0.00
2019-01-24T17:55:50.025Z,0.00
2019-01-24T17:58:38.227Z,0.00
2019-01-24T18:01:19.410Z,0.00
2019-01-24T18:04:00.366Z,0.00
2019-01-24T18:06:41.359Z,0.00
2019-01-24T18:09:22.075Z,0.00
2019-01-24T18:12:03.101Z,0.00
2019-01-24T18:14:44.188Z,0.00
2019-01-24T18:17:25.258Z,0.00
2019-01-24T18:20:06.155Z,0.00
2019-01-24T18:22:48.514Z,0.00
2019-01-24T18:25:29.429Z,0.00
2019-01-24T18:28:10.206Z,0.00
2019-01-24T18:30:51.241Z,0.00
2019-01-24T18:33:32.429Z,0.00
2019-01-24T18:36:13.113Z,0.00
2019-01-24T18:38:53.859Z,0.00
2019-01-24T18:41:22.988Z,0.00
2019-01-24T18:44:11.231Z,0.00
2019-01-24T18:46:51.838Z,0.00
2019-01-24T18:49:32.277Z,0.00
2019-01-24T18:52:13.433Z,0.00
2019-01-24T18:54:53.853Z,-0.10
2019-01-24T18:57:34.815Z,-0.10
2019-01-24T19:00:16.234Z,-0.10
2019-01-24T19:02:57.264Z,-0.10
2019-01-24T19:05:38.632Z,-0.10
2019-01-24T19:08:20.193Z,-0.10
2019-01-24T19:11:00.655Z,-0.10
2019-01-24T19:13:41.925Z,0.00
2019-01-24T19:16:23.282Z,0.00
2019-01-24T19:18:52.444Z,-0.10
2019-01-24T19:21:40.790Z,-0.10
2019-01-24T19:24:22.250Z,-0.10
2019-01-24T19:27:02.900Z,-0.10
2019-01-24T19:29:43.388Z,-0.10
2019-01-24T19:32:12.521Z,0.00
2019-01-24T19:35:00.783Z,-0.10
2019-01-24T19:37:49.066Z,-0.10
2019-01-24T19:43:09.038Z,-0.10
2019-01-24T19:45:50.250Z,-0.10
2019-01-24T19:48:30.904Z,-0.10
2019-01-24T19:51:11.621Z,-0.10
2019-01-24T19:53:52.156Z,-0.20
2019-01-24T19:56:33.111Z,-0.20
2019-01-24T19:59:13.745Z,-0.20
2019-01-24T20:01:57.892Z,-0.20
2019-01-24T20:04:39.076Z,-0.30
2019-01-24T20:07:20.116Z,-0.30
2019-01-24T20:10:01.625Z,-0.30
2019-01-24T20:12:42.509Z,-0.30
2019-01-24T20:15:23.646Z,-0.30
2019-01-24T20:18:04.370Z,-0.30
2019-01-24T20:20:45.501Z,-0.30
2019-01-24T20:23:26.803Z,-0.30
2019-01-24T20:26:07.890Z,-0.30
2019-01-24T20:28:49.186Z,-0.30
2019-01-24T20:31:29.897Z,-0.30
2019-01-24T20:34:11.008Z,-0.40
2019-01-24T20:36:51.576Z,-0.40
2019-01-24T20:39:32.909Z,-0.40
2019-01-24T20:42:02.155Z,-0.40
2019-01-24T20:44:50.527Z,-0.40
2019-01-24T20:47:31.782Z,-0.40
2019-01-24T20:50:13.068Z,-0.30
2019-01-24T20:58:12.228Z,-0.20
2019-01-24T21:00:41.397Z,-0.30
2019-01-24T21:03:29.659Z,-0.30
2019-01-24T21:06:17.883Z,-0.40
2019-01-24T21:08:58.640Z,-0.40
2019-01-24T21:11:39.464Z,-0.40
2019-01-24T21:14:21.857Z,-0.40
2019-01-24T21:17:03.213Z,-0.40
2019-01-24T21:19:44.254Z,-0.40
2019-01-24T21:22:25.282Z,-0.40
2019-01-24T21:25:05.669Z,-0.40
2019-01-24T21:27:46.597Z,-0.50
2019-01-24T21:30:27.633Z,-0.50
2019-01-24T21:33:08.445Z,-0.50
2019-01-24T21:35:49.394Z,-0.50
2019-01-24T21:38:30.324Z,-0.50
2019-01-24T21:41:11.214Z,-0.50
2019-01-24T21:43:52.488Z,-0.50
2019-01-24T21:46:36.565Z,-0.50
2019-01-24T21:49:17.866Z,-0.50
2019-01-24T21:51:59.015Z,-0.50
2019-01-24T21:54:39.834Z,-0.50
2019-01-24T21:57:21.289Z,-0.50
2019-01-24T22:00:02.583Z,-0.50
2019-01-24T22:02:43.386Z,-0.50
2019-01-24T22:05:12.685Z,-0.60
2019-01-24T22:08:00.920Z,-0.60
2019-01-24T22:10:49.094Z,-0.60
2019-01-24T22:13:30.384Z,-0.60
2019-01-24T22:16:11.124Z,-0.70
2019-01-24T22:18:51.941Z,-0.70
2019-01-24T22:21:33.061Z,-0.80
2019-01-24T22:24:13.665Z,-0.80
2019-01-24T22:26:54.552Z,-0.80
2019-01-24T22:29:35.212Z,-0.80
2019-01-24T22:32:16.198Z,-0.80
2019-01-24T22:34:56.759Z,-0.80
2019-01-24T22:37:37.600Z,-0.80
2019-01-24T22:40:18.454Z,-0.80
2019-01-24T22:42:59.024Z,-0.80
2019-01-24T22:45:39.729Z,-0.80
2019-01-24T22:48:21.018Z,-0.80
2019-01-24T22:51:01.934Z,-0.80
2019-01-24T22:53:42.826Z,-0.80
2019-01-24T22:56:23.842Z,-0.80
2019-01-24T22:59:05.131Z,-0.90
2019-01-24T23:01:45.628Z,-0.90
2019-01-24T23:04:26.653Z,-0.90
2019-01-24T23:07:07.757Z,-0.80
2019-01-24T23:09:48.874Z,-0.90
2019-01-24T23:12:29.759Z,-0.80
2019-01-24T23:15:10.199Z,-0.80
2019-01-24T23:17:50.821Z,-0.90
2019-01-24T23:20:32.229Z,-0.90
2019-01-24T23:23:12.719Z,-0.90
2019-01-24T23:25:53.398Z,-0.90
2019-01-24T23:28:33.906Z,-0.90
2019-01-24T23:31:14.861Z,-0.90
2019-01-24T23:33:55.674Z,-0.90
2019-01-24T23:36:36.500Z,-0.90
2019-01-24T23:39:17.413Z,-0.90
2019-01-24T23:41:58.361Z,-0.90
2019-01-24T23:44:39.209Z,-0.90
2019-01-24T23:47:08.380Z,-0.90
2019-01-24T23:49:49.706Z,-0.90
2019-01-24T23:52:30.634Z,-0.90
2019-01-24T23:55:11.570Z,-0.90
2019-01-24T23:57:52.182Z,-0.90
